createdAt,value
2023-01-05T00:00:01.788Z,0.00
2023-01-05T00:01:01.773Z,0.00
2023-01-05T00:02:01.836Z,0.00
2023-01-05T00:03:01.741Z,0.00
2023-01-05T00:04:01.798Z,0.00
2023-01-05T00:05:01.721Z,0.00
2023-01-05T00:06:01.734Z,0.00
2023-01-05T00:07:01.702Z,0.00
2023-01-05T00:08:01.713Z,0.00
2023-01-05T00:09:01.674Z,0.00
2023-01-05T00:10:01.667Z,0.00
2023-01-05T00:11:01.666Z,0.00
2023-01-05T00:12:01.668Z,0.00
2023-01-05T00:13:01.653Z,0.00
2023-01-05T00:14:01.630Z,0.00
2023-01-05T00:15:01.610Z,0.00
2023-01-05T00:16:01.797Z,0.00
2023-01-05T00:17:01.616Z,0.00
2023-01-05T00:18:01.636Z,0.00
2023-01-05T00:19:01.576Z,0.00
2023-01-05T00:20:01.615Z,0.00
2023-01-05T00:21:01.541Z,0.00
2023-01-05T00:22:01.562Z,0.00
2023-01-05T00:23:01.553Z,0.00
2023-01-05T00:24:01.516Z,0.00
2023-01-05T00:25:04.784Z,0.00
2023-01-05T00:26:02.504Z,0.00
2023-01-05T00:27:01.482Z,0.00
2023-01-05T00:28:01.497Z,0.00
2023-01-05T00:29:01.466Z,0.00
2023-01-05T00:30:01.454Z,0.00
2023-01-05T00:31:01.451Z,0.00
2023-01-05T00:32:01.469Z,0.00
2023-01-05T00:33:01.437Z,0.00
2023-01-05T00:34:01.428Z,0.00
2023-01-05T00:35:01.392Z,0.00
2023-01-05T00:36:01.389Z,0.00
2023-01-05T00:37:01.383Z,0.00
2023-01-05T00:38:01.385Z,0.00
2023-01-05T00:39:01.351Z,0.00
2023-01-05T00:40:01.348Z,0.00
2023-01-05T00:41:01.332Z,0.00
2023-01-05T00:42:01.330Z,0.00
2023-01-05T00:43:01.330Z,0.00
2023-01-05T00:44:01.299Z,0.00
2023-01-05T00:45:01.301Z,0.00
2023-01-05T00:46:01.351Z,0.00
2023-01-05T00:47:01.267Z,0.00
2023-01-05T00:48:01.284Z,0.00
2023-01-05T00:49:01.248Z,0.00
2023-01-05T00:50:01.250Z,0.00
2023-01-05T00:51:01.228Z,0.00
2023-01-05T00:52:01.221Z,0.00
2023-01-05T00:53:01.239Z,0.00
2023-01-05T00:54:01.188Z,0.00
2023-01-05T00:55:01.182Z,0.00
2023-01-05T00:56:01.162Z,0.00
2023-01-05T00:57:01.155Z,0.00
2023-01-05T00:58:01.167Z,0.00
2023-01-05T00:59:01.135Z,0.00
2023-01-05T01:00:01.122Z,0.00
2023-01-05T01:01:01.193Z,0.00
2023-01-05T01:02:01.222Z,0.00
2023-01-05T01:03:01.174Z,0.00
2023-01-05T01:04:01.085Z,0.00
2023-01-05T01:05:01.081Z,0.00
2023-01-05T01:06:01.112Z,0.00
2023-01-05T01:07:01.057Z,0.00
2023-01-05T01:08:01.032Z,0.00
2023-01-05T01:09:01.049Z,0.00
2023-01-05T01:10:01.011Z,0.00
2023-01-05T01:11:01.026Z,0.00
2023-01-05T01:12:00.991Z,0.00
2023-01-05T01:13:00.998Z,0.00
2023-01-05T01:14:00.998Z,0.00
2023-01-05T01:15:00.980Z,0.00
2023-01-05T01:16:00.946Z,0.00
2023-01-05T01:17:01.020Z,0.00
2023-01-05T01:18:00.934Z,0.00
2023-01-05T01:19:05.109Z,0.00
2023-01-05T01:20:00.936Z,0.00
2023-01-05T01:21:00.893Z,0.00
2023-01-05T01:22:00.902Z,0.00
2023-01-05T01:23:00.875Z,0.00
2023-01-05T01:24:00.866Z,0.00
2023-01-05T01:25:00.872Z,0.00
2023-01-05T01:26:00.836Z,0.00
2023-01-05T01:27:00.851Z,0.00
2023-01-05T01:28:00.822Z,0.00
2023-01-05T01:29:00.827Z,0.00
2023-01-05T01:30:00.797Z,0.00
2023-01-05T01:31:00.841Z,0.00
2023-01-05T01:32:00.801Z,0.00
2023-01-05T01:33:00.768Z,0.00
2023-01-05T01:34:00.750Z,0.00
2023-01-05T01:35:00.770Z,0.00
2023-01-05T01:36:00.759Z,0.00
2023-01-05T01:37:29.665Z,0.00
2023-01-05T01:38:29.651Z,0.00
2023-01-05T01:39:29.638Z,0.00
2023-01-05T01:40:29.620Z,0.00
2023-01-05T01:41:29.616Z,0.00
2023-01-05T01:42:29.618Z,0.00
2023-01-05T01:43:29.603Z,0.00
2023-01-05T01:44:29.575Z,0.00
2023-01-05T01:45:29.618Z,0.00
2023-01-05T01:46:29.615Z,0.00
2023-01-05T01:47:29.535Z,0.00
2023-01-05T01:48:29.535Z,0.00
2023-01-05T01:49:29.538Z,0.00
2023-01-05T01:50:29.501Z,0.00
2023-01-05T01:51:29.495Z,0.00
2023-01-05T01:52:29.508Z,0.00
2023-01-05T01:53:29.534Z,0.00
2023-01-05T01:54:29.455Z,0.00
2023-01-05T01:55:29.470Z,0.00
2023-01-05T01:56:29.431Z,0.00
2023-01-05T01:57:29.421Z,0.00
2023-01-05T01:58:29.423Z,0.00
2023-01-05T01:59:29.402Z,0.00
2023-01-05T02:00:29.421Z,0.00
2023-01-05T02:01:29.508Z,0.00
2023-01-05T02:02:29.602Z,0.00
2023-01-05T02:03:29.360Z,0.00
2023-01-05T02:04:29.442Z,0.00
2023-01-05T02:05:29.375Z,0.00
2023-01-05T02:06:29.330Z,0.00
2023-01-05T02:07:29.356Z,0.00
2023-01-05T02:08:29.314Z,0.00
2023-01-05T02:09:29.357Z,0.00
2023-01-05T02:10:29.293Z,0.00
2023-01-05T02:11:29.310Z,0.00
2023-01-05T02:12:29.265Z,0.00
2023-01-05T02:13:31.604Z,0.00
2023-01-05T02:14:29.239Z,0.00
2023-01-05T02:15:29.230Z,0.00
2023-01-05T02:16:29.299Z,0.00
2023-01-05T02:17:29.221Z,0.00
2023-01-05T02:18:29.222Z,0.00
2023-01-05T02:19:29.190Z,0.00
2023-01-05T02:20:29.172Z,0.00
2023-01-05T02:21:29.181Z,0.00
2023-01-05T02:22:29.171Z,0.00
2023-01-05T02:23:29.154Z,0.00
2023-01-05T02:24:29.126Z,0.00
2023-01-05T02:25:29.235Z,0.00
2023-01-05T02:26:29.136Z,0.00
2023-01-05T02:27:29.124Z,0.00
2023-01-05T02:28:29.085Z,0.00
2023-01-05T02:29:29.081Z,0.00
2023-01-05T02:30:29.136Z,0.00
2023-01-05T02:31:29.078Z,0.00
2023-01-05T02:32:29.040Z,0.00
2023-01-05T02:33:29.027Z,0.00
2023-01-05T02:34:29.022Z,0.00
2023-01-05T02:35:29.002Z,0.00
2023-01-05T02:36:29.149Z,0.00
2023-01-05T02:37:29.010Z,0.00
2023-01-05T02:38:28.972Z,0.00
2023-01-05T02:39:28.959Z,0.00
2023-01-05T02:40:28.982Z,0.00
2023-01-05T02:41:28.955Z,0.00
2023-01-05T02:42:28.946Z,0.00
2023-01-05T02:43:28.951Z,0.00
2023-01-05T02:44:28.921Z,0.00
2023-01-05T02:45:28.908Z,0.00
2023-01-05T02:46:28.970Z,0.00
2023-01-05T02:47:28.880Z,0.00
2023-01-05T02:48:28.889Z,0.00
2023-01-05T02:49:28.872Z,0.00
2023-01-05T02:50:28.846Z,0.00
2023-01-05T02:51:28.835Z,0.00
2023-01-05T02:52:28.848Z,0.00
2023-01-05T02:53:28.824Z,0.00
2023-01-05T02:54:28.806Z,0.00
2023-01-05T02:55:28.787Z,0.00
2023-01-05T02:56:28.777Z,0.00
2023-01-05T02:57:28.787Z,0.00
2023-01-05T02:58:28.772Z,0.00
2023-01-05T02:59:28.740Z,0.00
2023-01-05T03:00:28.738Z,0.00
2023-01-05T03:01:28.835Z,0.00
2023-01-05T03:02:28.953Z,0.00
2023-01-05T03:03:28.789Z,0.00
2023-01-05T03:04:28.711Z,0.00
2023-01-05T03:05:28.676Z,0.00
2023-01-05T03:06:28.677Z,0.00
2023-01-05T03:07:28.674Z,0.00
2023-01-05T03:08:32.742Z,0.00
2023-01-05T03:09:28.649Z,0.00
2023-01-05T03:10:28.623Z,0.00
2023-01-05T03:11:28.625Z,0.00
2023-01-05T03:12:28.599Z,0.00
2023-01-05T03:13:28.621Z,0.00
2023-01-05T03:14:28.605Z,0.00
2023-01-05T03:15:28.578Z,0.00
2023-01-05T03:16:28.629Z,0.00
2023-01-05T03:17:28.556Z,0.00
2023-01-05T03:18:28.537Z,0.00
2023-01-05T03:19:28.556Z,0.00
2023-01-05T03:20:28.515Z,0.00
2023-01-05T03:21:28.524Z,0.00
2023-01-05T03:22:28.498Z,0.00
2023-01-05T03:23:28.475Z,0.00
2023-01-05T03:24:28.470Z,0.00
2023-01-05T03:25:28.457Z,0.00
2023-01-05T03:26:28.456Z,0.00
2023-01-05T03:27:28.457Z,0.00
2023-01-05T03:28:28.436Z,0.00
2023-01-05T03:29:28.430Z,0.00
2023-01-05T03:30:28.406Z,0.00
2023-01-05T03:31:28.468Z,0.00
2023-01-05T03:32:34.805Z,0.00
2023-01-05T03:33:29.371Z,0.00
2023-01-05T03:34:28.361Z,0.00
2023-01-05T03:35:28.349Z,0.00
2023-01-05T03:36:28.344Z,0.00
2023-01-05T03:37:28.344Z,0.00
2023-01-05T03:38:28.318Z,0.00
2023-01-05T03:39:28.300Z,0.00
2023-01-05T03:40:28.297Z,0.00
2023-01-05T03:41:28.282Z,0.00
2023-01-05T03:42:28.292Z,0.00
2023-01-05T03:43:28.266Z,0.00
2023-01-05T03:44:28.284Z,0.00
2023-01-05T03:45:28.261Z,0.00
2023-01-05T03:46:28.301Z,0.00
2023-01-05T03:47:28.235Z,0.00
2023-01-05T03:48:28.216Z,0.00
2023-01-05T03:49:28.200Z,0.00
2023-01-05T03:50:28.183Z,0.00
2023-01-05T03:51:28.175Z,0.00
2023-01-05T03:52:28.181Z,0.00
2023-01-05T03:53:28.157Z,0.00
2023-01-05T03:54:28.148Z,0.00
2023-01-05T03:55:28.141Z,0.00
2023-01-05T03:56:28.127Z,0.00
2023-01-05T03:57:28.131Z,0.00
2023-01-05T03:58:28.103Z,0.00
2023-01-05T03:59:28.095Z,0.00
2023-01-05T04:00:28.077Z,0.00
2023-01-05T04:01:28.316Z,0.00
2023-01-05T04:02:28.265Z,0.00
2023-01-05T04:03:31.988Z,0.00
2023-01-05T04:04:28.029Z,0.00
2023-01-05T04:05:28.015Z,0.00
2023-01-05T04:06:28.009Z,0.00
2023-01-05T04:07:28.026Z,0.00
2023-01-05T04:08:27.986Z,0.00
2023-01-05T04:09:27.973Z,0.00
2023-01-05T04:10:27.973Z,0.00
2023-01-05T04:11:27.986Z,0.00
2023-01-05T04:12:27.969Z,0.00
2023-01-05T04:13:27.938Z,0.00
2023-01-05T04:14:27.918Z,0.00
2023-01-05T04:15:27.905Z,0.00
2023-01-05T04:16:27.984Z,0.00
2023-01-05T04:17:27.905Z,0.00
2023-01-05T04:18:27.898Z,0.00
2023-01-05T04:19:27.864Z,0.00
2023-01-05T04:20:27.860Z,0.00
2023-01-05T04:21:27.848Z,0.00
2023-01-05T04:22:27.847Z,0.00
2023-01-05T04:23:27.844Z,0.00
2023-01-05T04:24:27.817Z,0.00
2023-01-05T04:25:27.793Z,0.00
2023-01-05T04:26:27.813Z,0.00
2023-01-05T04:27:27.777Z,0.00
2023-01-05T04:28:27.774Z,0.00
2023-01-05T04:29:27.771Z,0.00
2023-01-05T04:30:27.752Z,0.00
2023-01-05T04:31:27.824Z,0.00
2023-01-05T04:32:27.723Z,0.00
2023-01-05T04:33:27.734Z,0.00
2023-01-05T04:34:27.726Z,0.00
2023-01-05T04:35:27.708Z,0.00
2023-01-05T04:36:27.702Z,0.00
2023-01-05T04:37:27.668Z,0.00
2023-01-05T04:38:27.657Z,0.00
2023-01-05T04:39:27.642Z,0.00
2023-01-05T04:40:27.660Z,0.00
2023-01-05T04:41:27.623Z,0.00
2023-01-05T04:42:27.615Z,0.00
2023-01-05T04:43:27.609Z,0.00
2023-01-05T04:44:27.600Z,0.00
2023-01-05T04:45:27.616Z,0.00
2023-01-05T04:46:27.612Z,0.00
2023-01-05T04:47:27.555Z,0.00
2023-01-05T04:48:27.546Z,0.00
2023-01-05T04:49:27.593Z,0.00
2023-01-05T04:50:27.557Z,0.00
2023-01-05T04:51:27.513Z,0.00
2023-01-05T04:52:27.503Z,0.00
2023-01-05T04:53:27.493Z,0.00
2023-01-05T04:54:27.481Z,0.00
2023-01-05T04:55:27.469Z,0.00
2023-01-05T04:56:27.499Z,0.00
2023-01-05T04:57:27.456Z,0.00
2023-01-05T04:58:27.446Z,0.00
2023-01-05T04:59:27.422Z,0.00
2023-01-05T05:00:27.422Z,0.00
2023-01-05T05:01:27.509Z,0.00
2023-01-05T05:02:27.565Z,0.00
2023-01-05T05:03:32.831Z,0.00
2023-01-05T05:04:28.374Z,0.00
2023-01-05T05:05:27.387Z,0.00
2023-01-05T05:06:27.355Z,0.00
2023-01-05T05:07:27.345Z,0.00
2023-01-05T05:08:27.358Z,0.00
2023-01-05T05:09:27.318Z,0.00
2023-01-05T05:10:27.340Z,0.00
2023-01-05T05:11:27.328Z,0.00
2023-01-05T05:12:27.288Z,0.00
2023-01-05T05:13:27.273Z,0.00
2023-01-05T05:14:27.281Z,0.00
2023-01-05T05:15:27.275Z,0.00
2023-01-05T05:16:27.291Z,0.00
2023-01-05T05:17:27.254Z,0.00
2023-01-05T05:18:27.220Z,0.00
2023-01-05T05:19:27.210Z,0.00
2023-01-05T05:20:27.217Z,0.00
2023-01-05T05:21:27.227Z,0.00
2023-01-05T05:22:27.177Z,0.00
2023-01-05T05:23:27.164Z,0.00
2023-01-05T05:24:27.181Z,0.00
2023-01-05T05:25:27.179Z,0.00
2023-01-05T05:26:27.136Z,0.00
2023-01-05T05:27:27.120Z,0.00
2023-01-05T05:28:27.120Z,0.00
2023-01-05T05:29:27.098Z,0.00
2023-01-05T05:30:27.108Z,0.00
2023-01-05T05:31:27.159Z,0.00
2023-01-05T05:32:27.082Z,0.00
2023-01-05T05:33:27.066Z,0.00
2023-01-05T05:34:27.048Z,0.00
2023-01-05T05:35:27.035Z,0.00
2023-01-05T05:36:27.051Z,0.00
2023-01-05T05:37:27.031Z,0.00
2023-01-05T05:38:27.011Z,0.00
2023-01-05T05:39:26.988Z,0.00
2023-01-05T05:40:26.992Z,0.00
2023-01-05T05:41:26.975Z,0.00
2023-01-05T05:42:26.986Z,0.00
2023-01-05T05:43:26.946Z,0.00
2023-01-05T05:44:26.945Z,0.00
2023-01-05T05:45:26.929Z,0.00
2023-01-05T05:46:26.954Z,0.00
2023-01-05T05:47:26.925Z,0.00
2023-01-05T05:48:26.900Z,0.00
2023-01-05T05:49:26.882Z,0.00
2023-01-05T05:50:26.874Z,0.00
2023-01-05T05:51:26.883Z,0.00
2023-01-05T05:52:26.876Z,0.00
2023-01-05T05:53:26.854Z,0.00
2023-01-05T05:54:26.831Z,0.00
2023-01-05T05:55:26.808Z,0.00
2023-01-05T05:56:26.804Z,0.00
2023-01-05T05:57:26.817Z,0.00
2023-01-05T05:58:26.782Z,0.00
2023-01-05T05:59:26.772Z,0.00
2023-01-05T06:00:26.771Z,0.00
2023-01-05T06:01:26.817Z,0.00
2023-01-05T06:02:26.772Z,0.00
2023-01-05T06:03:26.790Z,0.00
2023-01-05T06:04:26.719Z,0.00
2023-01-05T06:05:26.706Z,0.00
2023-01-05T06:06:26.699Z,0.00
2023-01-05T06:07:26.683Z,0.00
2023-01-05T06:08:26.692Z,0.00
2023-01-05T06:09:26.685Z,0.00
2023-01-05T06:10:26.654Z,0.00
2023-01-05T06:11:26.643Z,0.00
2023-01-05T06:12:26.641Z,0.00
2023-01-05T06:13:26.619Z,0.00
2023-01-05T06:14:26.630Z,0.00
2023-01-05T06:15:26.624Z,0.00
2023-01-05T06:16:26.644Z,0.00
2023-01-05T06:17:26.575Z,0.00
2023-01-05T06:18:26.587Z,0.00
2023-01-05T06:19:26.577Z,0.00
2023-01-05T06:20:26.551Z,0.00
2023-01-05T06:21:26.528Z,0.00
2023-01-05T06:22:26.518Z,0.00
2023-01-05T06:23:26.506Z,0.00
2023-01-05T06:24:26.520Z,0.00
2023-01-05T06:25:26.529Z,0.00
2023-01-05T06:26:26.509Z,0.00
2023-01-05T06:27:26.465Z,0.00
2023-01-05T06:28:26.461Z,0.00
2023-01-05T06:29:26.461Z,0.00
2023-01-05T06:30:26.435Z,0.00
2023-01-05T06:31:26.475Z,0.00
2023-01-05T06:32:26.449Z,0.00
2023-01-05T06:33:26.403Z,0.00
2023-01-05T06:34:26.422Z,0.00
2023-01-05T06:35:26.380Z,0.00
2023-01-05T06:36:26.374Z,0.00
2023-01-05T06:37:26.385Z,0.00
2023-01-05T06:38:26.350Z,0.00
2023-01-05T06:39:26.336Z,0.00
2023-01-05T06:40:26.351Z,0.00
2023-01-05T06:41:26.335Z,0.00
2023-01-05T06:42:26.315Z,0.00
2023-01-05T06:43:26.296Z,0.00
2023-01-05T06:44:26.275Z,0.00
2023-01-05T06:45:26.296Z,0.00
2023-01-05T06:46:26.253Z,0.00
2023-01-05T06:47:26.270Z,0.00
2023-01-05T06:48:26.233Z,0.00
2023-01-05T06:49:26.223Z,0.00
2023-01-05T06:50:26.218Z,0.00
2023-01-05T06:51:26.207Z,0.00
2023-01-05T06:52:26.213Z,4.00
2023-01-05T06:53:26.187Z,4.00
2023-01-05T06:54:26.190Z,4.00
2023-01-05T06:55:26.166Z,0.00
2023-01-05T06:56:26.144Z,0.00
2023-01-05T06:57:26.155Z,4.00
2023-01-05T06:58:26.146Z,4.00
2023-01-05T06:59:26.119Z,0.00
2023-01-05T07:00:26.109Z,4.00
2023-01-05T07:01:26.365Z,4.00
2023-01-05T07:02:26.086Z,4.00
2023-01-05T07:03:26.091Z,8.00
2023-01-05T07:04:26.159Z,4.00
2023-01-05T07:05:26.060Z,4.00
2023-01-05T07:06:26.066Z,8.00
2023-01-05T07:07:26.024Z,8.00
2023-01-05T07:08:26.012Z,12.00
2023-01-05T07:09:26.030Z,8.00
2023-01-05T07:10:25.996Z,12.00
2023-01-05T07:11:26.009Z,12.00
2023-01-05T07:12:25.968Z,12.00
2023-01-05T07:13:25.990Z,16.00
2023-01-05T07:14:25.982Z,16.00
2023-01-05T07:15:25.939Z,16.00
2023-01-05T07:16:26.035Z,20.00
2023-01-05T07:17:25.923Z,20.00
2023-01-05T07:18:25.904Z,24.00
2023-01-05T07:19:25.922Z,20.00
2023-01-05T07:20:25.880Z,24.00
2023-01-05T07:21:25.895Z,20.00
2023-01-05T07:22:25.864Z,28.00
2023-01-05T07:23:25.858Z,24.00
2023-01-05T07:24:25.860Z,28.00
2023-01-05T07:25:25.830Z,28.00
2023-01-05T07:26:25.817Z,36.00
2023-01-05T07:27:25.808Z,28.00
2023-01-05T07:28:25.794Z,32.00
2023-01-05T07:29:25.827Z,40.00
2023-01-05T07:30:25.776Z,36.00
2023-01-05T07:31:25.894Z,40.00
2023-01-05T07:32:25.762Z,44.00
2023-01-05T07:33:25.753Z,44.00
2023-01-05T07:34:25.731Z,52.00
2023-01-05T07:35:25.752Z,48.00
2023-01-05T07:36:25.705Z,48.00
2023-01-05T07:37:25.746Z,52.00
2023-01-05T07:38:25.692Z,52.00
2023-01-05T07:39:25.681Z,52.00
2023-01-05T07:40:25.704Z,52.00
2023-01-05T07:41:25.679Z,56.00
2023-01-05T07:42:25.642Z,56.00
2023-01-05T07:43:25.634Z,60.00
2023-01-05T07:44:25.618Z,60.00
2023-01-05T07:45:25.694Z,68.00
2023-01-05T07:46:25.664Z,64.00
2023-01-05T07:47:25.588Z,60.00
2023-01-05T07:48:25.580Z,68.00
2023-01-05T07:49:25.565Z,68.00
2023-01-05T07:50:25.593Z,60.00
2023-01-05T07:51:25.545Z,72.00
2023-01-05T07:52:25.553Z,72.00
2023-01-05T07:53:25.527Z,72.00
2023-01-05T07:54:25.527Z,72.00
2023-01-05T07:55:25.522Z,76.00
2023-01-05T07:56:25.514Z,80.00
2023-01-05T07:57:25.477Z,72.00
2023-01-05T07:58:25.487Z,76.00
2023-01-05T07:59:25.476Z,52.00
2023-01-05T08:00:25.454Z,60.00
2023-01-05T08:01:25.654Z,80.00
2023-01-05T08:02:29.673Z,80.00
2023-01-05T08:03:26.421Z,68.00
2023-01-05T08:04:25.440Z,88.00
2023-01-05T08:05:25.388Z,92.00
2023-01-05T08:06:25.415Z,132.00
2023-01-05T08:07:25.390Z,128.00
2023-01-05T08:08:25.361Z,120.00
2023-01-05T08:09:25.364Z,120.00
2023-01-05T08:10:25.381Z,112.00
2023-01-05T08:11:25.328Z,168.00
2023-01-05T08:12:25.340Z,124.00
2023-01-05T08:13:25.306Z,128.00
2023-01-05T08:14:25.298Z,128.00
2023-01-05T08:15:25.305Z,128.00
2023-01-05T08:16:25.364Z,196.00
2023-01-05T08:17:25.321Z,188.00
2023-01-05T08:18:25.248Z,184.00
2023-01-05T08:19:25.242Z,260.00
2023-01-05T08:20:25.260Z,184.00
2023-01-05T08:21:25.223Z,120.00
2023-01-05T08:22:25.241Z,180.00
2023-01-05T08:23:26.806Z,220.00
2023-01-05T08:24:25.189Z,312.00
2023-01-05T08:25:25.190Z,192.00
2023-01-05T08:26:25.165Z,192.00
2023-01-05T08:27:25.168Z,308.00
2023-01-05T08:28:31.299Z,200.00
2023-01-05T08:29:26.155Z,208.00
2023-01-05T08:30:25.144Z,164.00
2023-01-05T08:31:25.187Z,160.00
2023-01-05T08:32:25.105Z,392.00
2023-01-05T08:33:25.112Z,176.00
2023-01-05T08:34:27.648Z,192.00
2023-01-05T08:35:26.071Z,212.00
2023-01-05T08:36:25.059Z,212.00
2023-01-05T08:37:25.050Z,272.00
2023-01-05T08:38:25.044Z,320.00
2023-01-05T08:39:25.053Z,256.00
2023-01-05T08:40:25.046Z,284.00
2023-01-05T08:41:25.014Z,320.00
2023-01-05T08:42:24.995Z,216.00
2023-01-05T08:43:24.987Z,232.00
2023-01-05T08:44:24.988Z,180.00
2023-01-05T08:45:24.995Z,160.00
2023-01-05T08:46:25.056Z,180.00
2023-01-05T08:47:28.212Z,168.00
2023-01-05T08:48:24.950Z,164.00
2023-01-05T08:49:24.969Z,168.00
2023-01-05T08:50:24.911Z,168.00
2023-01-05T08:51:24.955Z,196.00
2023-01-05T08:52:24.888Z,196.00
2023-01-05T08:53:24.876Z,212.00
2023-01-05T08:54:24.871Z,192.00
2023-01-05T08:55:24.854Z,300.00
2023-01-05T08:56:24.870Z,280.00
2023-01-05T08:57:24.842Z,216.00
2023-01-05T08:58:24.823Z,184.00
2023-01-05T08:59:24.809Z,264.00
2023-01-05T09:00:24.818Z,184.00
2023-01-05T09:01:24.977Z,188.00
2023-01-05T09:02:26.067Z,180.00
2023-01-05T09:03:24.807Z,204.00
2023-01-05T09:04:24.777Z,188.00
2023-01-05T09:05:24.768Z,188.00
2023-01-05T09:06:24.742Z,192.00
2023-01-05T09:07:24.730Z,184.00
2023-01-05T09:08:24.733Z,188.00
2023-01-05T09:09:24.699Z,192.00
2023-01-05T09:10:24.708Z,196.00
2023-01-05T09:11:24.706Z,196.00
2023-01-05T09:12:29.185Z,192.00
2023-01-05T09:13:25.662Z,196.00
2023-01-05T09:14:24.651Z,200.00
2023-01-05T09:15:24.641Z,208.00
2023-01-05T09:16:56.918Z,204.00
2023-01-05T09:17:25.660Z,200.00
2023-01-05T09:18:24.602Z,212.00
2023-01-05T09:19:24.608Z,204.00
2023-01-05T09:20:24.577Z,192.00
2023-01-05T09:21:24.631Z,208.00
2023-01-05T09:22:24.558Z,196.00
2023-01-05T09:23:24.587Z,212.00
2023-01-05T09:24:24.543Z,200.00
2023-01-05T09:25:24.532Z,204.00
2023-01-05T09:26:24.513Z,204.00
2023-01-05T09:27:24.530Z,216.00
2023-01-05T09:28:24.532Z,216.00
2023-01-05T09:29:24.484Z,216.00
2023-01-05T09:30:24.481Z,224.00
2023-01-05T09:31:24.495Z,260.00
2023-01-05T09:32:24.447Z,236.00
2023-01-05T09:33:24.457Z,248.00
2023-01-05T09:34:24.425Z,304.00
2023-01-05T09:35:24.418Z,340.00
2023-01-05T09:36:24.451Z,288.00
2023-01-05T09:37:24.540Z,320.00
2023-01-05T09:38:24.420Z,424.00
2023-01-05T09:39:24.379Z,656.00
2023-01-05T09:40:24.371Z,656.00
2023-01-05T09:41:24.355Z,700.00
2023-01-05T09:42:24.359Z,552.00
2023-01-05T09:43:24.329Z,580.00
2023-01-05T09:44:24.318Z,368.00
2023-01-05T09:45:24.317Z,404.00
2023-01-05T09:46:24.467Z,320.00
2023-01-05T09:47:24.309Z,244.00
2023-01-05T09:48:24.271Z,220.00
2023-01-05T09:49:24.262Z,216.00
2023-01-05T09:50:24.251Z,192.00
2023-01-05T09:51:24.244Z,340.00
2023-01-05T09:52:24.254Z,268.00
2023-01-05T09:53:24.341Z,240.00
2023-01-05T09:54:24.216Z,272.00
2023-01-05T09:55:24.205Z,668.00
2023-01-05T09:56:58.879Z,400.00
2023-01-05T09:57:25.199Z,288.00
2023-01-05T09:58:29.700Z,456.00
2023-01-05T09:59:25.162Z,412.00
2023-01-05T10:00:24.166Z,380.00
2023-01-05T10:01:24.206Z,336.00
2023-01-05T10:02:24.152Z,420.00
2023-01-05T10:04:01.920Z,364.00
2023-01-05T10:04:30.303Z,440.00
2023-01-05T10:05:25.251Z,564.00
2023-01-05T10:06:24.078Z,608.00
2023-01-05T10:07:24.070Z,620.00
2023-01-05T10:08:24.161Z,728.00
2023-01-05T10:09:24.164Z,544.00
2023-01-05T10:10:30.231Z,508.00
2023-01-05T10:11:25.017Z,712.00
2023-01-05T10:12:24.012Z,696.00
2023-01-05T10:13:24.021Z,632.00
2023-01-05T10:14:23.992Z,532.00
2023-01-05T10:15:23.976Z,424.00
2023-01-05T10:16:29.300Z,444.00
2023-01-05T10:17:42.776Z,420.00
2023-01-05T10:18:25.052Z,556.00
2023-01-05T10:19:23.943Z,836.00
2023-01-05T10:20:23.922Z,600.00
2023-01-05T10:21:23.949Z,536.00
2023-01-05T10:22:23.922Z,540.00
2023-01-05T10:23:23.911Z,860.00
2023-01-05T10:24:23.883Z,788.00
2023-01-05T10:25:23.983Z,884.00
2023-01-05T10:26:23.855Z,676.00
2023-01-05T10:27:25.613Z,844.00
2023-01-05T10:28:23.904Z,744.00
2023-01-05T10:29:23.849Z,964.00
2023-01-05T10:30:23.820Z,764.00
2023-01-05T10:31:23.993Z,904.00
2023-01-05T10:32:23.796Z,520.00
2023-01-05T10:33:35.674Z,636.00
2023-01-05T10:34:24.805Z,284.00
2023-01-05T10:35:59.011Z,392.00
2023-01-05T10:36:57.531Z,548.00
2023-01-05T10:37:24.751Z,884.00
2023-01-05T10:38:23.800Z,824.00
2023-01-05T10:39:23.729Z,796.00
2023-01-05T10:40:23.708Z,824.00
2023-01-05T10:41:23.808Z,828.00
2023-01-05T10:42:23.681Z,856.00
2023-01-05T10:43:23.709Z,840.00
2023-01-05T10:44:23.684Z,660.00
2023-01-05T10:45:23.660Z,756.00
2023-01-05T10:46:43.661Z,780.00
2023-01-05T10:47:24.712Z,704.00
2023-01-05T10:48:23.638Z,808.00
2023-01-05T10:49:23.604Z,668.00
2023-01-05T10:50:23.618Z,784.00
2023-01-05T10:51:23.588Z,768.00
2023-01-05T10:52:23.577Z,876.00
2023-01-05T10:53:23.562Z,732.00
2023-01-05T10:54:23.584Z,424.00
2023-01-05T10:55:23.571Z,320.00
2023-01-05T10:56:23.538Z,408.00
2023-01-05T10:57:26.578Z,392.00
2023-01-05T10:58:24.511Z,432.00
2023-01-05T10:59:23.556Z,404.00
2023-01-05T11:00:23.509Z,372.00
2023-01-05T11:01:23.637Z,332.00
2023-01-05T11:02:23.631Z,324.00
2023-01-05T11:03:46.717Z,348.00
2023-01-05T11:04:33.230Z,316.00
2023-01-05T11:05:24.488Z,424.00
2023-01-05T11:06:23.427Z,396.00
2023-01-05T11:07:23.431Z,352.00
2023-01-05T11:08:23.397Z,364.00
2023-01-05T11:09:23.391Z,304.00
2023-01-05T11:10:23.373Z,344.00
2023-01-05T11:11:23.368Z,264.00
2023-01-05T11:12:23.374Z,400.00
2023-01-05T11:13:23.451Z,488.00
2023-01-05T11:14:23.342Z,308.00
2023-01-05T11:15:23.318Z,256.00
2023-01-05T11:16:23.344Z,284.00
2023-01-05T11:17:23.324Z,504.00
2023-01-05T11:18:23.312Z,504.00
2023-01-05T11:19:23.276Z,340.00
2023-01-05T11:20:23.277Z,388.00
2023-01-05T11:21:23.260Z,536.00
2023-01-05T11:22:23.284Z,588.00
2023-01-05T11:23:23.233Z,588.00
2023-01-05T11:24:23.231Z,644.00
2023-01-05T11:25:23.210Z,728.00
2023-01-05T11:26:23.200Z,512.00
2023-01-05T11:27:23.190Z,632.00
2023-01-05T11:28:23.215Z,528.00
2023-01-05T11:29:23.193Z,716.00
2023-01-05T11:30:23.156Z,444.00
2023-01-05T11:31:23.201Z,480.00
2023-01-05T11:32:23.140Z,388.00
2023-01-05T11:33:25.290Z,484.00
2023-01-05T11:34:23.116Z,752.00
2023-01-05T11:35:23.104Z,716.00
2023-01-05T11:36:23.093Z,636.00
2023-01-05T11:37:23.079Z,760.00
2023-01-05T11:38:23.098Z,572.00
2023-01-05T11:39:23.073Z,484.00
2023-01-05T11:40:23.054Z,432.00
2023-01-05T11:41:23.037Z,808.00
2023-01-05T11:42:25.643Z,340.00
2023-01-05T11:43:23.028Z,556.00
2023-01-05T11:44:23.003Z,844.00
2023-01-05T11:45:23.104Z,568.00
2023-01-05T11:46:23.057Z,660.00
2023-01-05T11:47:22.994Z,424.00
2023-01-05T11:48:22.962Z,620.00
2023-01-05T11:49:22.945Z,580.00
2023-01-05T11:50:22.939Z,596.00
2023-01-05T11:51:27.603Z,912.00
2023-01-05T11:52:22.924Z,764.00
2023-01-05T11:53:22.929Z,608.00
2023-01-05T11:54:22.896Z,456.00
2023-01-05T11:55:22.878Z,812.00
2023-01-05T11:56:22.892Z,608.00
2023-01-05T11:57:22.859Z,800.00
2023-01-05T11:58:22.894Z,564.00
2023-01-05T11:59:22.838Z,736.00
2023-01-05T12:00:22.882Z,544.00
2023-01-05T12:01:22.980Z,752.00
2023-01-05T12:02:22.908Z,856.00
2023-01-05T12:03:22.817Z,836.00
2023-01-05T12:04:22.824Z,680.00
2023-01-05T12:05:22.779Z,672.00
2023-01-05T12:06:22.766Z,696.00
2023-01-05T12:07:22.757Z,548.00
2023-01-05T12:08:22.769Z,760.00
2023-01-05T12:09:22.765Z,920.00
2023-01-05T12:10:22.729Z,568.00
2023-01-05T12:11:22.740Z,720.00
2023-01-05T12:12:22.700Z,608.00
2023-01-05T12:13:22.704Z,532.00
2023-01-05T12:14:22.678Z,708.00
2023-01-05T12:15:22.668Z,472.00
2023-01-05T12:16:22.740Z,608.00
2023-01-05T12:17:22.796Z,536.00
2023-01-05T12:18:22.640Z,300.00
2023-01-05T12:19:22.627Z,464.00
2023-01-05T12:20:22.628Z,516.00
2023-01-05T12:21:22.622Z,512.00
2023-01-05T12:22:22.599Z,348.00
2023-01-05T12:23:22.577Z,684.00
2023-01-05T12:24:22.570Z,460.00
2023-01-05T12:25:22.580Z,500.00
2023-01-05T12:26:22.554Z,280.00
2023-01-05T12:27:22.547Z,356.00
2023-01-05T12:28:39.773Z,516.00
2023-01-05T12:34:23.469Z,420.00
2023-01-05T12:35:22.447Z,328.00
2023-01-05T12:36:22.445Z,192.00
2023-01-05T12:37:22.451Z,200.00
2023-01-05T12:38:22.419Z,216.00
2023-01-05T12:39:25.724Z,360.00
2023-01-05T12:40:23.412Z,508.00
2023-01-05T12:41:22.383Z,280.00
2023-01-05T12:42:22.377Z,184.00
2023-01-05T12:43:22.359Z,452.00
2023-01-05T12:44:22.373Z,244.00
2023-01-05T12:45:26.722Z,320.00
2023-01-05T12:46:23.437Z,388.00
2023-01-05T12:47:22.318Z,308.00
2023-01-05T12:48:22.310Z,420.00
2023-01-05T12:49:22.411Z,252.00
2023-01-05T12:50:22.326Z,220.00
2023-01-05T12:51:22.282Z,216.00
2023-01-05T12:52:22.272Z,172.00
2023-01-05T12:53:22.249Z,120.00
2023-01-05T12:54:22.240Z,152.00
2023-01-05T12:55:22.254Z,216.00
2023-01-05T12:56:22.229Z,184.00
2023-01-05T12:57:22.225Z,288.00
2023-01-05T12:58:22.265Z,120.00
2023-01-05T12:59:22.188Z,108.00
2023-01-05T13:00:22.203Z,104.00
2023-01-05T13:01:22.332Z,80.00
2023-01-05T13:02:22.287Z,76.00